Time;durP1;ratioP1;P1;durP2;ratioP2;P2;SDS_P1;SDS_P2;PMS_P1;PMS_P2;Temp;Humidity;BMP_temperature;BMP_pressure;BME280_temperature;BME280_humidity;BME280_pressure;Samples;Min_cycle;Max_cycle;Signal;HPM_P1;HPM_P2
2022/09/18 00:00:38;;;;;;;;;;;11.00;99.90;;;;;;4989337;28;19926;-77
2022/09/18 00:03:04;;;;;;;;;;;11.10;99.90;;;;;;4988850;28;20412;-78
2022/09/18 00:05:29;;;;;;;;;;;11.10;99.90;;;;;;4988617;28;19926;-79
2022/09/18 00:07:55;;;;;;;;;;;11.10;99.90;;;;;;4990289;28;19925;-78
2022/09/18 00:10:20;;;;;;;;;;;11.10;99.90;;;;;;4989525;28;19930;-77
2022/09/18 00:12:46;;;;;;;;;;;11.20;99.90;;;;;;4989147;28;20071;-77
2022/09/18 00:15:11;;;;;;;;;;;11.20;99.90;;;;;;4988578;28;19928;-78
2022/09/18 00:17:37;;;;;;;;;;;11.20;99.90;;;;;;4989026;28;20516;-78
2022/09/18 00:20:03;;;;;;;;;;;11.30;99.90;;;;;;4988603;28;19928;-78
2022/09/18 00:22:29;;;;;;;;;;;11.30;99.90;;;;;;4988873;28;20013;-78
2022/09/18 00:24:54;;;;;;;;;;;11.30;99.90;;;;;;4988402;28;20377;-78
2022/09/18 00:27:20;;;;;;;;;;;11.30;99.90;;;;;;4989266;28;19930;-77
2022/09/18 00:29:45;;;;;;;;;;;11.30;99.90;;;;;;4988813;28;19933;-77
2022/09/18 00:32:11;;;;;;;;;;;11.30;99.90;;;;;;4989535;28;19941;-77
2022/09/18 00:34:38;;;;;;;;;;;11.30;99.90;;;;;;4985767;28;19934;-78
2022/09/18 00:37:03;;;;;;;;;;;11.30;99.90;;;;;;4968940;28;19926;-78
2022/09/18 00:39:29;;;;;;;;;;;11.30;99.90;;;;;;4970120;28;19926;-78
2022/09/18 00:41:54;;;;;;;;;;;11.30;99.90;;;;;;4953167;28;19926;-77
2022/09/18 00:44:23;;;;;;;;;;;11.40;99.90;;;;;;4969882;28;19934;-77
2022/09/18 00:46:49;;;;;;;;;;;11.40;99.90;;;;;;4969587;28;19974;-77
2022/09/18 00:49:14;;;;;;;;;;;11.40;99.90;;;;;;4969830;28;20344;-78
2022/09/18 00:51:40;;;;;;;;;;;11.40;99.90;;;;;;4968661;28;19961;-78
2022/09/18 00:54:05;;;;;;;;;;;11.40;99.90;;;;;;4968184;28;20397;-78
2022/09/18 00:56:31;;;;;;;;;;;11.40;99.90;;;;;;4968135;28;20580;-78
2022/09/18 00:58:57;;;;;;;;;;;11.40;99.90;;;;;;4969772;28;20039;-77
2022/09/18 01:01:22;;;;;;;;;;;11.40;99.90;;;;;;5044800;23;20302;-78
2022/09/18 01:03:48;;;;;;;;;;;11.40;99.90;;;;;;5008074;28;19925;-78
2022/09/18 01:06:15;;;;;;;;;;;11.40;99.90;;;;;;5007226;28;19925;-78
2022/09/18 01:09:06;;;;;;;;;;;11.40;99.90;;;;;;5008058;28;20044;-77
2022/09/18 01:11:34;;;;;;;;;;;11.40;99.90;;;;;;5006456;28;19926;-78
2022/09/18 01:14:21;;;;;;;;;;;11.40;99.90;;;;;;5006623;28;20387;-79
2022/09/18 01:16:51;;;;;;;;;;;11.40;99.90;;;;;;4990474;28;19965;-78
2022/09/18 01:19:38;;;;;;;;;;;11.40;99.90;;;;;;5008081;28;19926;-77
2022/09/18 01:22:15;;;;;;;;;;;11.40;99.90;;;;;;5005990;28;19932;-78
2022/09/18 01:24:59;;;;;;;;;;;11.40;99.90;;;;;;5008402;28;19926;-78
2022/09/18 01:27:30;;;;;;;;;;;11.40;99.90;;;;;;5008577;28;19926;-78
2022/09/18 01:29:56;;;;;;;;;;;11.30;99.90;;;;;;5008327;28;20481;-78
2022/09/18 01:32:26;;;;;;;;;;;11.30;99.90;;;;;;5006863;28;19921;-77
2022/09/18 01:34:57;;;;;;;;;;;11.30;99.90;;;;;;5007601;28;19926;-78
2022/09/18 01:37:32;;;;;;;;;;;11.30;99.90;;;;;;5003747;28;20004;-78
2022/09/18 01:40:05;;;;;;;;;;;11.30;99.90;;;;;;5007110;28;19925;-77
2022/09/18 01:42:31;;;;;;;;;;;11.30;99.90;;;;;;5022892;28;19921;-78
2022/09/18 01:45:00;;;;;;;;;;;11.30;99.90;;;;;;5008357;28;19925;-78
2022/09/18 01:47:28;;;;;;;;;;;11.30;99.90;;;;;;5006904;28;19926;-77
2022/09/18 01:49:55;;;;;;;;;;;11.40;99.90;;;;;;5006778;28;19925;-78
2022/09/18 01:52:28;;;;;;;;;;;11.30;99.90;;;;;;4987364;28;20036;-78
2022/09/18 01:54:55;;;;;;;;;;;11.30;99.90;;;;;;4988410;28;19926;-78
2022/09/18 01:57:35;;;;;;;;;;;11.30;99.90;;;;;;4987173;28;19926;-78
2022/09/18 02:00:06;;;;;;;;;;;11.30;99.90;;;;;;4988433;28;19926;-78
2022/09/18 02:02:44;;;;;;;;;;;11.30;99.90;;;;;;4991347;28;19972;-78
2022/09/18 02:05:13;;;;;;;;;;;11.30;99.90;;;;;;5007049;28;19936;-78
2022/09/18 02:07:38;;;;;;;;;;;11.20;99.90;;;;;;5006174;28;19933;-78
2022/09/18 02:10:05;;;;;;;;;;;11.20;99.90;;;;;;5006749;28;19925;-78
2022/09/18 02:12:32;;;;;;;;;;;11.20;99.90;;;;;;5007682;28;19979;-78
2022/09/18 02:15:01;;;;;;;;;;;11.20;99.90;;;;;;5008097;28;19949;-77
2022/09/18 02:17:30;;;;;;;;;;;11.20;99.90;;;;;;5008230;28;19927;-78
2022/09/18 02:20:00;;;;;;;;;;;11.20;99.90;;;;;;5007882;28;20008;-78
2022/09/18 02:22:29;;;;;;;;;;;11.20;99.90;;;;;;5007183;28;19925;-78
2022/09/18 02:24:56;;;;;;;;;;;11.20;99.90;;;;;;5009575;28;20011;-78
2022/09/18 02:27:23;;;;;;;;;;;11.20;99.90;;;;;;5010413;28;20296;-78
2022/09/18 02:29:48;;;;;;;;;;;11.20;99.90;;;;;;5011059;28;19925;-78
2022/09/18 02:32:14;;;;;;;;;;;11.20;99.90;;;;;;5011344;28;20213;-78
2022/09/18 02:34:39;;;;;;;;;;;11.20;99.90;;;;;;5010780;28;20064;-77
2022/09/18 02:37:11;;;;;;;;;;;11.20;99.90;;;;;;5009793;28;20368;-77
2022/09/18 02:39:55;;;;;;;;;;;11.20;99.90;;;;;;5010994;28;20303;-77
2022/09/18 02:42:35;;;;;;;;;;;11.20;99.90;;;;;;5011208;28;19925;-77
2022/09/18 02:45:07;;;;;;;;;;;11.30;99.90;;;;;;5010078;28;19952;-78
2022/09/18 02:47:51;;;;;;;;;;;11.20;99.90;;;;;;5011014;28;20305;-78
2022/09/18 02:50:30;;;;;;;;;;;11.20;99.90;;;;;;5010556;28;19953;-77
2022/09/18 02:53:07;;;;;;;;;;;11.20;99.90;;;;;;5009884;28;19922;-78
2022/09/18 02:55:45;;;;;;;;;;;11.20;99.90;;;;;;5009418;28;20421;-78
2022/09/18 02:58:16;;;;;;;;;;;11.20;99.90;;;;;;5026374;28;19988;-78
2022/09/18 03:00:43;;;;;;;;;;;11.20;99.90;;;;;;5010406;28;19922;-78
2022/09/18 03:03:12;;;;;;;;;;;11.10;99.90;;;;;;5009244;28;20012;-78
2022/09/18 03:05:38;;;;;;;;;;;11.20;99.90;;;;;;5008851;28;20287;-78
2022/09/18 03:08:03;;;;;;;;;;;11.10;99.90;;;;;;5009269;28;19932;-78
2022/09/18 03:10:29;;;;;;;;;;;11.20;99.90;;;;;;5011179;28;19933;-78
2022/09/18 03:12:54;;;;;;;;;;;11.20;99.90;;;;;;5010873;28;19925;-78
2022/09/18 03:15:21;;;;;;;;;;;11.10;99.90;;;;;;5010605;28;19948;-77
2022/09/18 03:17:46;;;;;;;;;;;11.20;99.90;;;;;;5010417;28;19978;-78
2022/09/18 03:20:12;;;;;;;;;;;11.20;99.90;;;;;;5009561;28;20334;-78
2022/09/18 03:22:37;;;;;;;;;;;11.20;99.90;;;;;;5010291;28;19925;-78
2022/09/18 03:25:03;;;;;;;;;;;11.20;99.90;;;;;;5010498;28;19929;-78
2022/09/18 03:27:28;;;;;;;;;;;11.20;99.90;;;;;;5010794;28;20375;-78
2022/09/18 03:29:54;;;;;;;;;;;11.20;99.90;;;;;;5010017;28;20367;-78
2022/09/18 03:32:19;;;;;;;;;;;11.20;99.90;;;;;;5010196;28;19965;-77
2022/09/18 03:34:44;;;;;;;;;;;11.20;99.90;;;;;;5007969;28;19926;-77
2022/09/18 03:37:10;;;;;;;;;;;11.20;99.90;;;;;;5008988;28;19925;-78
2022/09/18 03:39:36;;;;;;;;;;;11.20;99.90;;;;;;5008450;28;19925;-78
2022/09/18 03:42:01;;;;;;;;;;;11.20;99.90;;;;;;5008753;28;19980;-78
2022/09/18 03:44:27;;;;;;;;;;;11.30;99.90;;;;;;5010432;28;19925;-77
2022/09/18 03:46:52;;;;;;;;;;;11.20;99.90;;;;;;5009726;28;19926;-77
2022/09/18 03:49:18;;;;;;;;;;;11.20;99.90;;;;;;5009957;28;20420;-78
2022/09/18 03:51:43;;;;;;;;;;;11.20;99.90;;;;;;5008633;28;19922;-77
2022/09/18 03:54:09;;;;;;;;;;;11.30;99.90;;;;;;5009805;28;19933;-78
2022/09/18 03:56:37;;;;;;;;;;;11.20;99.90;;;;;;5008658;28;19922;-78
2022/09/18 03:59:03;;;;;;;;;;;11.30;99.90;;;;;;5009600;28;20403;-78
2022/09/18 04:01:28;;;;;;;;;;;11.30;99.90;;;;;;5010142;28;19925;-78
2022/09/18 04:03:54;;;;;;;;;;;11.30;99.90;;;;;;5009340;28;19925;-78
2022/09/18 04:06:20;;;;;;;;;;;11.20;99.90;;;;;;5008735;28;20024;-77
2022/09/18 04:08:45;;;;;;;;;;;11.20;99.90;;;;;;5009545;28;20012;-78
2022/09/18 04:11:11;;;;;;;;;;;11.20;99.90;;;;;;5009105;28;19932;-78
2022/09/18 04:13:36;;;;;;;;;;;11.10;99.90;;;;;;5008088;28;20411;-78
2022/09/18 04:16:02;;;;;;;;;;;11.10;99.90;;;;;;5009161;28;19932;-78
2022/09/18 04:18:27;;;;;;;;;;;11.00;99.90;;;;;;5009713;28;19926;-78
2022/09/18 04:20:53;;;;;;;;;;;11.00;99.90;;;;;;5008091;28;20047;-78
2022/09/18 04:23:19;;;;;;;;;;;11.00;99.90;;;;;;5008163;28;20364;-78
2022/09/18 04:25:45;;;;;;;;;;;11.00;99.90;;;;;;5008883;28;19925;-77
2022/09/18 04:28:11;;;;;;;;;;;10.90;99.90;;;;;;5009310;28;19932;-78
2022/09/18 04:30:37;;;;;;;;;;;10.90;99.90;;;;;;5007401;28;19925;-78
2022/09/18 04:33:02;;;;;;;;;;;10.90;99.90;;;;;;5009114;28;19995;-78
2022/09/18 04:35:28;;;;;;;;;;;10.90;99.90;;;;;;5008526;28;20311;-78
2022/09/18 04:37:54;;;;;;;;;;;10.90;99.90;;;;;;5009159;28;19949;-78
2022/09/18 04:40:19;;;;;;;;;;;10.90;99.90;;;;;;5009183;28;19996;-78
2022/09/18 04:42:45;;;;;;;;;;;10.90;99.90;;;;;;5008750;28;19940;-78
2022/09/18 04:45:11;;;;;;;;;;;10.90;99.90;;;;;;5007818;28;19926;-78
2022/09/18 04:47:36;;;;;;;;;;;11.00;99.90;;;;;;5007117;28;20346;-78
2022/09/18 04:50:03;;;;;;;;;;;11.00;99.90;;;;;;5007898;28;19925;-78
2022/09/18 04:52:29;;;;;;;;;;;11.00;99.90;;;;;;5009450;28;20222;-78
2022/09/18 04:54:54;;;;;;;;;;;11.00;99.90;;;;;;5007633;28;20394;-78
2022/09/18 04:57:19;;;;;;;;;;;11.00;99.90;;;;;;5008890;28;19976;-78
2022/09/18 04:59:45;;;;;;;;;;;11.00;99.90;;;;;;5008151;28;20280;-78
2022/09/18 05:02:10;;;;;;;;;;;11.10;99.90;;;;;;5007064;28;19972;-78
2022/09/18 05:04:36;;;;;;;;;;;11.00;99.90;;;;;;5007620;28;19925;-78
2022/09/18 05:07:03;;;;;;;;;;;11.10;99.90;;;;;;5006990;28;20287;-78
2022/09/18 05:09:31;;;;;;;;;;;11.10;99.90;;;;;;5007714;28;20554;-78
2022/09/18 05:11:56;;;;;;;;;;;11.10;99.90;;;;;;5008695;28;20024;-78
2022/09/18 05:14:22;;;;;;;;;;;11.10;99.90;;;;;;5008337;28;19964;-78
2022/09/18 05:16:47;;;;;;;;;;;11.10;99.90;;;;;;5007000;28;19925;-78
2022/09/18 05:19:13;;;;;;;;;;;11.10;99.90;;;;;;5008382;28;19972;-78
2022/09/18 05:21:39;;;;;;;;;;;11.20;99.90;;;;;;5007445;28;19929;-78
2022/09/18 05:24:04;;;;;;;;;;;11.10;99.90;;;;;;5007025;28;19926;-78
2022/09/18 05:26:30;;;;;;;;;;;11.10;99.90;;;;;;5007767;28;19933;-78
2022/09/18 05:28:55;;;;;;;;;;;11.10;99.90;;;;;;5002869;28;20265;-79
2022/09/18 05:31:21;;;;;;;;;;;11.10;99.90;;;;;;4981827;28;19929;-77
2022/09/18 05:33:46;;;;;;;;;;;11.00;99.90;;;;;;4988767;28;20415;-77
2022/09/18 05:36:12;;;;;;;;;;;11.10;99.90;;;;;;4985488;28;19925;-77
2022/09/18 05:38:38;;;;;;;;;;;11.00;99.90;;;;;;5005788;28;19976;-77
2022/09/18 05:41:03;;;;;;;;;;;11.00;99.90;;;;;;4993602;28;19933;-77
2022/09/18 05:43:29;;;;;;;;;;;11.00;99.90;;;;;;5004466;28;19930;-77
2022/09/18 05:45:55;;;;;;;;;;;11.00;99.90;;;;;;4990510;28;19980;-77
2022/09/18 05:48:21;;;;;;;;;;;11.00;99.90;;;;;;4988008;28;20012;-79
2022/09/18 05:50:47;;;;;;;;;;;11.00;99.90;;;;;;4986996;28;19926;-77
2022/09/18 05:53:14;;;;;;;;;;;11.00;99.90;;;;;;4988002;28;19925;-77
2022/09/18 05:55:39;;;;;;;;;;;11.00;99.90;;;;;;4987914;28;19930;-77
2022/09/18 05:58:06;;;;;;;;;;;11.00;99.90;;;;;;4987909;28;19926;-76
2022/09/18 06:00:33;;;;;;;;;;;11.00;99.90;;;;;;5000053;28;19932;-77
2022/09/18 06:02:59;;;;;;;;;;;11.00;99.90;;;;;;5011685;28;20088;-76
2022/09/18 06:05:26;;;;;;;;;;;11.00;99.90;;;;;;5011224;28;19925;-76
2022/09/18 06:07:51;;;;;;;;;;;11.00;99.90;;;;;;5010203;28;20004;-76
2022/09/18 06:10:18;;;;;;;;;;;11.00;99.90;;;;;;5011454;28;20012;-76
2022/09/18 06:12:43;;;;;;;;;;;11.00;99.90;;;;;;5010521;28;19926;-76
2022/09/18 06:15:10;;;;;;;;;;;11.00;99.90;;;;;;5011724;28;19929;-76
2022/09/18 06:17:35;;;;;;;;;;;11.00;99.90;;;;;;5010429;28;19965;-78
2022/09/18 06:20:00;;;;;;;;;;;11.00;99.90;;;;;;5009627;28;19960;-78
2022/09/18 06:22:26;;;;;;;;;;;11.10;99.90;;;;;;5011673;28;20285;-78
2022/09/18 06:24:51;;;;;;;;;;;11.00;99.90;;;;;;5010447;28;20474;-77
2022/09/18 06:27:17;;;;;;;;;;;11.00;99.90;;;;;;5009199;28;19948;-77
2022/09/18 06:29:42;;;;;;;;;;;11.00;99.90;;;;;;5010079;28;20399;-78
2022/09/18 06:32:08;;;;;;;;;;;11.00;99.90;;;;;;5010846;28;19969;-77
2022/09/18 06:34:34;;;;;;;;;;;11.00;99.90;;;;;;5010020;28;19972;-76
2022/09/18 06:36:59;;;;;;;;;;;11.00;99.90;;;;;;5010455;28;19936;-77
2022/09/18 06:39:25;;;;;;;;;;;11.00;99.90;;;;;;5009630;28;20419;-78
2022/09/18 06:41:50;;;;;;;;;;;11.00;99.90;;;;;;5008826;28;19936;-78
2022/09/18 06:44:16;;;;;;;;;;;10.90;99.90;;;;;;5010403;28;19925;-79
2022/09/18 06:46:42;;;;;;;;;;;10.90;99.90;;;;;;4994634;28;19973;-77
2022/09/18 06:49:07;;;;;;;;;;;11.00;99.90;;;;;;4989577;28;19926;-78
2022/09/18 06:51:33;;;;;;;;;;;10.90;99.90;;;;;;4988282;28;19922;-78
2022/09/18 06:53:58;;;;;;;;;;;11.00;99.90;;;;;;4990638;28;19932;-77
2022/09/18 06:56:23;;;;;;;;;;;10.90;99.90;;;;;;4989136;28;19932;-77
2022/09/18 06:58:51;;;;;;;;;;;10.90;99.90;;;;;;4990210;28;19934;-77
2022/09/18 07:01:16;;;;;;;;;;;10.80;99.90;;;;;;4990179;28;20057;-77
2022/09/18 07:03:41;;;;;;;;;;;10.80;99.90;;;;;;4990372;28;20424;-77
2022/09/18 07:06:08;;;;;;;;;;;10.70;99.90;;;;;;4989630;28;19926;-77
2022/09/18 07:08:34;;;;;;;;;;;10.70;99.90;;;;;;4989757;28;19925;-77
2022/09/18 07:11:00;;;;;;;;;;;10.70;99.90;;;;;;4990275;28;19932;-78
2022/09/18 07:13:28;;;;;;;;;;;10.70;99.90;;;;;;4990881;28;19925;-78
2022/09/18 07:15:54;;;;;;;;;;;10.60;99.90;;;;;;4990043;28;20348;-77
2022/09/18 07:18:20;;;;;;;;;;;10.60;99.90;;;;;;4988628;28;19972;-77
2022/09/18 07:20:45;;;;;;;;;;;10.60;99.90;;;;;;4989225;28;20348;-77
2022/09/18 07:23:11;;;;;;;;;;;10.60;99.90;;;;;;4990086;28;20012;-77
2022/09/18 07:25:36;;;;;;;;;;;10.60;99.90;;;;;;4989835;28;20032;-77
2022/09/18 07:28:03;;;;;;;;;;;10.60;99.90;;;;;;5005111;28;20304;-77
2022/09/18 07:30:28;;;;;;;;;;;10.60;99.90;;;;;;4989838;28;19926;-77
2022/09/18 07:32:54;;;;;;;;;;;10.70;99.90;;;;;;4988305;28;19933;-77
2022/09/18 07:35:19;;;;;;;;;;;10.70;99.90;;;;;;4997109;28;20011;-77
2022/09/18 07:37:45;;;;;;;;;;;10.70;99.90;;;;;;5007690;28;19926;-78
2022/09/18 07:40:11;;;;;;;;;;;10.80;99.90;;;;;;5008091;28;20068;-77
2022/09/18 07:42:37;;;;;;;;;;;10.80;99.90;;;;;;5008779;28;19929;-78
2022/09/18 07:45:02;;;;;;;;;;;10.70;99.90;;;;;;5009535;28;20368;-78
2022/09/18 07:47:28;;;;;;;;;;;10.70;99.90;;;;;;5009642;28;19925;-78
2022/09/18 07:49:54;;;;;;;;;;;10.70;99.90;;;;;;5007999;28;19925;-78
2022/09/18 07:52:20;;;;;;;;;;;10.70;99.90;;;;;;5009085;28;20350;-78
2022/09/18 07:54:45;;;;;;;;;;;10.70;99.90;;;;;;5023937;28;19925;-78
2022/09/18 07:57:11;;;;;;;;;;;10.70;99.90;;;;;;5008958;28;20295;-77
2022/09/18 07:59:36;;;;;;;;;;;10.80;99.90;;;;;;5008508;28;19925;-78
2022/09/18 08:02:03;;;;;;;;;;;10.80;99.90;;;;;;5008646;28;20424;-79
2022/09/18 08:04:28;;;;;;;;;;;10.80;99.90;;;;;;5008566;28;20289;-78
2022/09/18 08:06:54;;;;;;;;;;;10.80;99.90;;;;;;5008390;28;20299;-78
2022/09/18 08:09:20;;;;;;;;;;;10.80;99.90;;;;;;5001381;28;20013;-77
2022/09/18 08:11:46;;;;;;;;;;;10.90;99.90;;;;;;4997775;28;20364;-77
2022/09/18 08:14:12;;;;;;;;;;;10.90;99.90;;;;;;4993459;28;19933;-78
2022/09/18 08:16:37;;;;;;;;;;;11.00;99.90;;;;;;5001047;28;19925;-77
2022/09/18 08:19:24;;;;;;;;;;;11.00;99.90;;;;;;5007545;28;20008;-77
2022/09/18 08:21:50;;;;;;;;;;;11.00;99.90;;;;;;5008585;28;20049;-78
2022/09/18 08:24:16;;;;;;;;;;;11.00;99.90;;;;;;4995727;28;19938;-78
2022/09/18 08:26:42;;;;;;;;;;;11.00;99.90;;;;;;4988434;28;20375;-78
2022/09/18 08:29:07;;;;;;;;;;;10.90;99.90;;;;;;4988661;28;19926;-78
2022/09/18 08:31:33;;;;;;;;;;;10.90;99.90;;;;;;4988442;28;19925;-78
2022/09/18 08:33:58;;;;;;;;;;;10.90;99.90;;;;;;4984456;28;20008;-78
2022/09/18 08:36:24;;;;;;;;;;;10.90;99.90;;;;;;5006438;28;19925;-78
2022/09/18 08:38:51;;;;;;;;;;;10.90;99.90;;;;;;5006769;28;20251;-77
2022/09/18 08:41:35;;;;;;;;;;;10.90;99.90;;;;;;5008476;28;19929;-78
2022/09/18 08:44:10;;;;;;;;;;;11.00;99.90;;;;;;5007249;28;20354;-77
2022/09/18 08:46:44;;;;;;;;;;;11.00;99.90;;;;;;5006238;28;19925;-78
2022/09/18 08:49:09;;;;;;;;;;;11.00;99.90;;;;;;5005891;28;20682;-77
2022/09/18 08:51:53;;;;;;;;;;;11.00;99.90;;;;;;5007637;28;19929;-77
2022/09/18 08:54:22;;;;;;;;;;;11.00;99.90;;;;;;5007145;28;20300;-78
2022/09/18 08:56:49;;;;;;;;;;;11.00;99.90;;;;;;5023274;28;19921;-78
2022/09/18 08:59:20;;;;;;;;;;;11.00;99.90;;;;;;5007896;28;20288;-77
2022/09/18 09:01:54;;;;;;;;;;;10.90;99.90;;;;;;5022880;28;19980;-77
2022/09/18 09:04:27;;;;;;;;;;;11.00;99.90;;;;;;5005720;28;19991;-78
2022/09/18 09:07:07;;;;;;;;;;;11.00;99.90;;;;;;5006198;28;19925;-78
2022/09/18 09:09:51;;;;;;;;;;;11.00;99.90;;;;;;5007415;28;19944;-77
2022/09/18 09:12:43;;;;;;;;;;;11.10;99.90;;;;;;5007822;28;19921;-77
2022/09/18 09:15:15;;;;;;;;;;;11.10;99.90;;;;;;5005674;28;19925;-78
2022/09/18 09:17:47;;;;;;;;;;;11.10;99.90;;;;;;5007152;28;19936;-77
2022/09/18 09:20:20;;;;;;;;;;;11.10;99.90;;;;;;5006709;28;20056;-77
2022/09/18 09:22:49;;;;;;;;;;;11.10;99.90;;;;;;5007357;28;19988;-77
2022/09/18 09:25:32;;;;;;;;;;;11.10;99.90;;;;;;4993442;28;20021;-78
2022/09/18 09:28:00;;;;;;;;;;;11.10;99.90;;;;;;4987910;28;20012;-78
2022/09/18 09:30:28;;;;;;;;;;;11.10;99.90;;;;;;4987749;28;19925;-78
2022/09/18 09:33:02;;;;;;;;;;;11.10;99.90;;;;;;4986584;28;20329;-77
2022/09/18 09:35:35;;;;;;;;;;;11.10;99.90;;;;;;4986984;28;19980;-77
2022/09/18 09:38:03;;;;;;;;;;;11.00;99.90;;;;;;4970583;28;19976;-77
2022/09/18 09:40:31;;;;;;;;;;;11.00;99.90;;;;;;4987928;28;20024;-78
2022/09/18 09:43:06;;;;;;;;;;;11.10;99.90;;;;;;4987664;28;19926;-78
2022/09/18 09:45:37;;;;;;;;;;;11.10;99.90;;;;;;4987395;28;19969;-77
2022/09/18 09:48:09;;;;;;;;;;;11.10;99.90;;;;;;4987245;28;19972;-78
2022/09/18 09:50:43;;;;;;;;;;;11.00;99.90;;;;;;4986946;28;19925;-78
2022/09/18 09:53:10;;;;;;;;;;;11.10;99.90;;;;;;4987620;28;20000;-77
2022/09/18 09:55:56;;;;;;;;;;;11.10;99.90;;;;;;4987330;28;19925;-78
2022/09/18 09:58:47;;;;;;;;;;;11.10;99.90;;;;;;4986241;28;19926;-77
2022/09/18 10:01:17;;;;;;;;;;;11.10;99.90;;;;;;4986808;28;19930;-78
2022/09/18 10:04:08;;;;;;;;;;;11.20;99.90;;;;;;4987006;28;19933;-77
2022/09/18 10:06:39;;;;;;;;;;;11.20;99.90;;;;;;4969457;28;19933;-78
2022/09/18 10:09:19;;;;;;;;;;;11.30;99.90;;;;;;4987106;28;20404;-78
2022/09/18 10:11:49;;;;;;;;;;;11.30;99.90;;;;;;4987328;28;19994;-77
2022/09/18 10:14:17;;;;;;;;;;;11.40;99.90;;;;;;4987390;28;19930;-78
2022/09/18 10:16:47;;;;;;;;;;;11.50;99.90;;;;;;4987011;28;20012;-77
2022/09/18 10:19:14;;;;;;;;;;;11.40;99.90;;;;;;4986078;28;19956;-77
2022/09/18 10:21:40;;;;;;;;;;;11.40;99.90;;;;;;4987269;28;19929;-77
2022/09/18 10:24:15;;;;;;;;;;;11.50;99.90;;;;;;4991661;28;19933;-77
2022/09/18 10:27:01;;;;;;;;;;;11.50;99.90;;;;;;5006537;28;19925;-78
2022/09/18 10:29:26;;;;;;;;;;;11.50;99.90;;;;;;5005428;28;19930;-77
2022/09/18 10:31:52;;;;;;;;;;;11.60;99.90;;;;;;5006834;28;19926;-78
2022/09/18 10:34:31;;;;;;;;;;;11.70;99.90;;;;;;5005960;28;19925;-78
2022/09/18 10:36:56;;;;;;;;;;;11.70;99.90;;;;;;5005437;28;19926;-78
2022/09/18 10:39:37;;;;;;;;;;;11.70;99.90;;;;;;5007058;28;19933;-77
2022/09/18 10:42:04;;;;;;;;;;;11.70;99.90;;;;;;5006564;28;19980;-78
2022/09/18 10:44:33;;;;;;;;;;;11.80;99.90;;;;;;5022342;28;19925;-77
2022/09/18 10:47:20;;;;;;;;;;;11.80;99.90;;;;;;5010421;28;20259;-77
2022/09/18 10:49:49;;;;;;;;;;;11.90;99.90;;;;;;5009091;28;20012;-77
2022/09/18 10:52:24;;;;;;;;;;;11.90;99.90;;;;;;5009924;28;20422;-78
2022/09/18 10:55:00;;;;;;;;;;;12.00;99.90;;;;;;5010325;28;20394;-78
2022/09/18 10:57:33;;;;;;;;;;;12.00;99.90;;;;;;5009094;28;19925;-78
2022/09/18 11:00:00;;;;;;;;;;;12.00;99.90;;;;;;5010289;28;20027;-78
2022/09/18 11:02:32;;;;;;;;;;;12.10;99.90;;;;;;5010132;28;19926;-77
2022/09/18 11:04:57;;;;;;;;;;;12.10;99.90;;;;;;5007871;28;19926;-78
2022/09/18 11:07:24;;;;;;;;;;;12.20;99.90;;;;;;5009971;28;19952;-77
2022/09/18 11:09:50;;;;;;;;;;;12.20;99.90;;;;;;5009990;28;20027;-78
2022/09/18 11:12:22;;;;;;;;;;;12.20;99.90;;;;;;5009994;28;19925;-78
2022/09/18 11:14:53;;;;;;;;;;;12.30;99.90;;;;;;5009671;28;20020;-78
2022/09/18 11:17:31;;;;;;;;;;;12.30;99.90;;;;;;5008551;28;20435;-78
2022/09/18 11:19:58;;;;;;;;;;;12.30;99.90;;;;;;5007756;28;19929;-78
2022/09/18 11:22:30;;;;;;;;;;;12.30;99.90;;;;;;5010049;28;20384;-78
2022/09/18 11:25:06;;;;;;;;;;;12.40;99.90;;;;;;4997192;28;19969;-78
2022/09/18 11:27:43;;;;;;;;;;;12.40;99.90;;;;;;4989762;28;19926;-78
2022/09/18 11:30:17;;;;;;;;;;;12.40;99.90;;;;;;4989710;28;19926;-78
2022/09/18 11:32:44;;;;;;;;;;;12.40;99.90;;;;;;4990048;28;19996;-78
2022/09/18 11:35:15;;;;;;;;;;;12.50;99.90;;;;;;4989026;28;19969;-77
2022/09/18 11:37:46;;;;;;;;;;;12.40;99.90;;;;;;4989506;28;19956;-78
2022/09/18 11:40:17;;;;;;;;;;;12.40;99.90;;;;;;4989710;28;20000;-78
2022/09/18 11:42:43;;;;;;;;;;;12.30;99.90;;;;;;4989233;28;20214;-78
2022/09/18 11:45:21;;;;;;;;;;;12.00;99.90;;;;;;4989916;28;19929;-78
2022/09/18 11:48:00;;;;;;;;;;;11.80;99.90;;;;;;4988001;28;20469;-78
2022/09/18 11:50:29;;;;;;;;;;;11.60;99.90;;;;;;4988852;28;19971;-78
2022/09/18 11:52:59;;;;;;;;;;;11.50;99.90;;;;;;4988468;28;19929;-78
2022/09/18 11:55:43;;;;;;;;;;;11.40;99.90;;;;;;4989899;28;19930;-78
2022/09/18 11:58:08;;;;;;;;;;;11.40;99.90;;;;;;4989167;28;19930;-78
2022/09/18 12:00:38;;;;;;;;;;;11.40;99.90;;;;;;4988963;28;19922;-77
2022/09/18 12:03:15;;;;;;;;;;;11.50;99.90;;;;;;4989037;28;19966;-78
2022/09/18 12:05:42;;;;;;;;;;;11.50;99.90;;;;;;4986859;28;19926;-78
2022/09/18 12:08:11;;;;;;;;;;;11.50;99.90;;;;;;4989138;28;20328;-78
2022/09/18 12:10:36;;;;;;;;;;;11.60;99.90;;;;;;4987563;28;20016;-78
2022/09/18 12:13:27;;;;;;;;;;;11.70;99.90;;;;;;4989039;28;20134;-78
2022/09/18 12:15:57;;;;;;;;;;;11.70;99.90;;;;;;4988884;28;19926;-79
2022/09/18 12:18:26;;;;;;;;;;;11.80;99.90;;;;;;4989175;28;20375;-78
2022/09/18 12:20:58;;;;;;;;;;;11.90;99.90;;;;;;4987634;28;19980;-78
2022/09/18 12:23:24;;;;;;;;;;;11.90;99.90;;;;;;4988760;28;19937;-77
2022/09/18 12:25:50;;;;;;;;;;;12.00;99.90;;;;;;5006346;28;20291;-78
2022/09/18 12:28:21;;;;;;;;;;;12.00;99.90;;;;;;5008212;28;20415;-78
2022/09/18 12:30:51;;;;;;;;;;;12.00;99.90;;;;;;5008036;28;19952;-78
2022/09/18 12:33:36;;;;;;;;;;;12.10;99.90;;;;;;5008393;28;19928;-78
2022/09/18 12:36:20;;;;;;;;;;;12.10;99.90;;;;;;5007225;28;20008;-78
2022/09/18 12:39:02;;;;;;;;;;;12.20;99.90;;;;;;5008025;28;19929;-78
2022/09/18 12:41:46;;;;;;;;;;;12.20;99.90;;;;;;5007467;28;19977;-78
2022/09/18 12:44:22;;;;;;;;;;;12.20;99.90;;;;;;5006575;28;19957;-77
2022/09/18 12:46:55;;;;;;;;;;;12.20;99.90;;;;;;5008002;28;20315;-77
2022/09/18 12:49:21;;;;;;;;;;;12.20;99.90;;;;;;5007011;28;20384;-78
2022/09/18 12:51:48;;;;;;;;;;;12.10;99.90;;;;;;5007828;28;20138;-78
2022/09/18 12:54:14;;;;;;;;;;;12.00;99.90;;;;;;5008053;28;19925;-78
2022/09/18 12:57:00;;;;;;;;;;;12.00;99.90;;;;;;5008014;28;19921;-78
2022/09/18 12:59:36;;;;;;;;;;;12.10;99.90;;;;;;5006840;28;19925;-78
2022/09/18 13:02:15;;;;;;;;;;;12.00;99.90;;;;;;5006364;28;19926;-78
2022/09/18 13:04:49;;;;;;;;;;;12.00;99.90;;;;;;5006701;28;19925;-78
2022/09/18 13:07:17;;;;;;;;;;;12.00;99.90;;;;;;5006170;28;19925;-78
2022/09/18 13:09:47;;;;;;;;;;;12.00;99.90;;;;;;5007434;28;19968;-78
2022/09/18 13:12:17;;;;;;;;;;;12.10;99.90;;;;;;5007463;28;19921;-78
2022/09/18 13:14:46;;;;;;;;;;;12.10;99.90;;;;;;5007401;28;19956;-78
2022/09/18 13:17:12;;;;;;;;;;;12.10;99.90;;;;;;5007875;28;19921;-78
2022/09/18 13:19:54;;;;;;;;;;;12.10;99.90;;;;;;5006456;28;19979;-78
2022/09/18 13:22:21;;;;;;;;;;;12.20;99.90;;;;;;5006510;28;19929;-78
2022/09/18 13:24:48;;;;;;;;;;;12.20;99.90;;;;;;4996925;28;19969;-78
2022/09/18 13:27:16;;;;;;;;;;;12.20;99.90;;;;;;4987871;28;20074;-78
2022/09/18 13:29:51;;;;;;;;;;;12.20;99.90;;;;;;4987489;28;20025;-78
2022/09/18 13:32:24;;;;;;;;;;;12.30;99.90;;;;;;4987588;28;20454;-78
2022/09/18 13:34:54;;;;;;;;;;;12.30;99.90;;;;;;4986266;28;19930;-77
2022/09/18 13:37:21;;;;;;;;;;;12.40;99.90;;;;;;4987495;28;19925;-78
2022/09/18 13:39:48;;;;;;;;;;;12.40;99.90;;;;;;5002653;28;19933;-78
2022/09/18 13:42:25;;;;;;;;;;;12.40;99.90;;;;;;4987812;28;19979;-78
2022/09/18 13:44:50;;;;;;;;;;;12.50;99.90;;;;;;4987077;28;20369;-78
2022/09/18 13:47:17;;;;;;;;;;;12.50;99.90;;;;;;5002785;28;19933;-78
2022/09/18 13:49:46;;;;;;;;;;;12.50;99.90;;;;;;4986204;28;19925;-78
2022/09/18 13:52:30;;;;;;;;;;;12.60;99.90;;;;;;4987893;28;19979;-78
2022/09/18 13:55:15;;;;;;;;;;;12.60;99.90;;;;;;4986659;28;20355;-78
2022/09/18 13:57:40;;;;;;;;;;;12.60;99.90;;;;;;4987386;28;19935;-78
2022/09/18 14:00:18;;;;;;;;;;;12.60;99.90;;;;;;4987193;28;20376;-77
2022/09/18 14:02:44;;;;;;;;;;;12.70;99.90;;;;;;4987054;28;19958;-78
2022/09/18 14:05:37;;;;;;;;;;;12.70;99.90;;;;;;4986520;28;19980;-78
2022/09/18 14:08:06;;;;;;;;;;;12.70;99.90;;;;;;4985769;28;19926;-78
2022/09/18 14:10:34;;;;;;;;;;;12.70;99.90;;;;;;4986903;28;20427;-78
2022/09/18 14:13:18;;;;;;;;;;;12.70;99.90;;;;;;4987520;28;19925;-78
2022/09/18 14:15:51;;;;;;;;;;;12.70;99.90;;;;;;4987176;28;19980;-78
2022/09/18 14:18:21;;;;;;;;;;;12.70;99.90;;;;;;4985477;28;19922;-78
2022/09/18 14:20:52;;;;;;;;;;;12.60;99.90;;;;;;5004948;28;19929;-78
2022/09/18 14:23:44;;;;;;;;;;;12.40;99.90;;;;;;4991145;28;20186;-78
2022/09/18 14:26:32;;;;;;;;;;;12.40;99.90;;;;;;4990704;28;19981;-78
2022/09/18 14:29:10;;;;;;;;;;;12.30;99.90;;;;;;4990201;28;19925;-78